createdAt,value
2023-02-03T00:00:03.271Z,100.0
2023-02-03T00:15:02.501Z,100.0
2023-02-03T00:30:02.977Z,100.0
2023-02-03T00:45:02.396Z,100.0
2023-02-03T01:00:02.837Z,100.0
2023-02-03T01:15:02.295Z,100.0
2023-02-03T01:30:02.697Z,100.0
2023-02-03T01:45:03.311Z,100.0
2023-02-03T02:00:02.564Z,100.0
2023-02-03T02:15:03.007Z,100.0
2023-02-03T02:30:02.461Z,100.0
2023-02-03T02:45:02.857Z,100.0
2023-02-03T03:00:02.313Z,100.0
2023-02-03T03:15:02.739Z,100.0
2023-02-03T03:30:03.333Z,100.0
2023-02-03T03:45:02.609Z,100.0
2023-02-03T04:00:03.063Z,98.8
2023-02-03T04:15:02.464Z,96.7
2023-02-03T04:30:02.921Z,94.5
2023-02-03T04:45:02.367Z,92.6
2023-02-03T05:00:02.801Z,91.5
2023-02-03T05:15:03.379Z,90.5
2023-02-03T05:45:03.365Z,90.9
2023-02-03T06:00:02.586Z,92.6
2023-02-03T06:15:03.004Z,93.6
2023-02-03T06:30:02.423Z,93.8
2023-02-03T06:45:02.867Z,93.3
2023-02-03T07:00:02.396Z,92.7
2023-02-03T07:15:02.736Z,93.3
2023-02-03T07:30:03.407Z,93.6
2023-02-03T07:45:02.596Z,95.4
2023-02-03T08:00:03.024Z,96.3
2023-02-03T08:15:02.494Z,96.7
2023-02-03T08:30:02.920Z,96.9
2023-02-03T08:45:04.972Z,96.4
2023-02-03T09:00:02.808Z,95.8
2023-02-03T09:15:03.455Z,95.3
2023-02-03T09:30:02.666Z,95.1
2023-02-03T09:45:03.117Z,95.6
2023-02-03T10:00:02.568Z,96.3
2023-02-03T10:15:03.009Z,96.8
2023-02-03T10:30:02.444Z,97.4
2023-02-03T10:45:02.901Z,98.0
2023-02-03T11:00:02.462Z,98.3
2023-02-03T11:15:02.731Z,98.3
2023-02-03T11:30:03.217Z,98.2
2023-02-03T11:45:02.612Z,98.1
2023-02-03T12:00:03.049Z,97.4
2023-02-03T12:15:02.494Z,96.3
2023-02-03T12:30:02.931Z,93.2
2023-02-03T12:45:02.502Z,88.3
2023-02-03T13:00:02.781Z,86.2
2023-02-03T13:15:03.419Z,83.9
2023-02-03T13:30:02.657Z,80.4
2023-02-03T13:45:03.121Z,77.4
2023-02-03T14:00:02.540Z,77.7
2023-02-03T14:15:02.996Z,76.7
2023-02-03T14:30:02.516Z,76.6
2023-02-03T14:45:02.841Z,73.5
2023-02-03T15:00:02.498Z,71.9
2023-02-03T15:15:02.717Z,72.8
2023-02-03T15:30:03.161Z,72.2
2023-02-03T15:45:02.615Z,72.1
2023-02-03T16:00:03.069Z,72.0
2023-02-03T16:15:02.551Z,72.5
2023-02-03T16:30:02.910Z,73.2
2023-02-03T16:45:02.529Z,73.8
2023-02-03T17:00:02.871Z,74.0
2023-02-03T17:15:02.251Z,74.9
2023-02-03T17:30:02.684Z,75.4
2023-02-03T18:15:02.962Z,77.6
2023-02-03T18:30:02.527Z,77.1
2023-02-03T18:45:02.830Z,76.6
2023-02-03T19:00:02.229Z,76.9
2023-02-03T19:15:02.692Z,77.9
2023-02-03T19:30:03.168Z,78.2
2023-02-03T19:45:02.602Z,78.5
2023-02-03T20:00:03.023Z,78.5
2023-02-03T20:15:02.586Z,77.8
2023-02-03T20:30:02.916Z,77.5
2023-02-03T20:45:02.559Z,77.8
2023-02-03T21:00:02.830Z,78.5
2023-02-03T21:15:03.267Z,79.3
2023-02-03T21:30:02.702Z,79.9
2023-02-03T21:45:03.131Z,80.8
2023-02-03T22:00:02.634Z,81.5
2023-02-03T22:15:02.998Z,82.3
2023-02-03T22:30:02.625Z,82.9
2023-02-03T22:45:02.889Z,83.4
2023-02-03T23:00:02.340Z,84.0
2023-02-03T23:30:02.199Z,85.5
2023-02-03T23:45:02.662Z,86.5
